Time;durP1;ratioP1;P1;durP2;ratioP2;P2;SDS_P1;SDS_P2;PMS_P1;PMS_P2;Temp;Humidity;BMP_temperature;BMP_pressure;BME280_temperature;BME280_humidity;BME280_pressure;Samples;Min_cycle;Max_cycle;Signal;HPM_P1;HPM_P2
2023/06/27 00:02:04;;;;;;;12.23;3.53;;;15.20;99.90;;;;;;6224008;22;20019;-91
2023/06/27 00:04:33;;;;;;;11.73;3.70;;;14.20;99.90;;;;;;6249905;22;20137;-91
2023/06/27 00:07:13;;;;;;;11.07;3.78;;;14.20;99.90;;;;;;6249893;22;20027;-91
2023/06/27 00:09:45;;;;;;;9.52;3.60;;;14.20;99.90;;;;;;6276373;22;20344;-91
2023/06/27 00:12:11;;;;;;;8.55;3.33;;;14.20;99.90;;;;;;6277072;22;20023;-92
2023/06/27 00:14:47;;;;;;;10.93;3.92;;;14.10;99.90;;;;;;6251395;22;20012;-91
2023/06/27 00:17:16;;;;;;;9.90;3.40;;;14.20;99.90;;;;;;6251529;22;20012;-91
2023/06/27 00:20:37;;;;;;;11.05;4.20;;;14.10;99.90;;;;;;6269144;22;20022;-91
2023/06/27 00:23:38;;;;;;;9.00;3.22;;;14.30;99.90;;;;;;6251573;22;20018;-91
2023/06/27 00:26:27;;;;;;;9.73;3.40;;;14.10;99.90;;;;;;6252000;22;20041;-91
2023/06/27 00:29:02;;;;;;;9.68;3.58;;;14.10;99.90;;;;;;6252039;22;20016;-92
2023/06/27 00:31:30;;;;;;;9.77;3.60;;;13.30;99.90;;;;;;6226314;22;20102;-91
2023/06/27 00:34:21;;;;;;;9.63;3.60;;;14.00;99.90;;;;;;6278833;22;20436;-91
2023/06/27 00:37:11;;;;;;;11.05;3.22;;;14.00;99.90;;;;;;6278840;22;20062;-91
2023/06/27 00:39:41;;;;;;;11.18;3.53;;;14.00;99.90;;;;;;6251416;22;20016;-91
2023/06/27 00:42:10;;;;;;;11.98;3.90;;;14.00;99.90;;;;;;6252389;22;20019;-92
2023/06/27 00:44:42;;;;;;;10.20;3.65;;;13.90;99.90;;;;;;6278752;22;20019;-92
2023/06/27 00:47:14;;;;;;;12.38;3.97;;;13.90;99.90;;;;;;6279060;22;20054;-92
2023/06/27 00:49:45;;;;;;;11.90;3.85;;;13.90;99.90;;;;;;6278846;22;20023;-92
2023/06/27 00:52:16;;;;;;;11.82;3.78;;;13.80;99.90;;;;;;6252565;22;20020;-91
2023/06/27 00:55:33;;;;;;;8.15;3.50;;;13.80;99.90;;;;;;6258235;22;20465;-91
2023/06/27 01:02:41;;;;;;;11.05;3.67;;;13.70;99.90;;;;;;6280571;22;20023;-91
2023/06/27 01:08:56;;;;;;;13.05;4.05;;;13.70;99.90;;;;;;6258180;22;20073;-91
2023/06/27 01:11:49;;;;;;;10.38;3.97;;;13.70;99.90;;;;;;6281098;22;20020;-91
2023/06/27 01:14:23;;;;;;;9.13;3.83;;;13.60;99.90;;;;;;6278280;22;20064;-92
2023/06/27 01:17:10;;;;;;;13.32;4.13;;;13.60;99.90;;;;;;6251460;22;20099;-90
2023/06/27 01:24:20;;;;;;;9.93;3.90;;;13.60;99.90;;;;;;6220544;23;20024;-91
2023/06/27 01:26:46;;;;;;;10.77;3.88;;;13.50;99.90;;;;;;6220096;23;20470;-90
2023/06/27 01:37:17;;;;;;;12.00;4.22;;;13.40;99.90;;;;;;6253469;23;20109;-91
2023/06/27 01:39:50;;;;;;;11.50;4.68;;;13.00;99.90;;;;;;6248697;23;20016;-91
2023/06/27 01:42:37;;;;;;;11.07;4.25;;;13.40;99.90;;;;;;6220331;23;20344;-91
2023/06/27 01:54:15;;;;;;;12.85;4.40;;;13.30;99.90;;;;;;6248710;22;20579;-91
2023/06/27 01:56:44;;;;;;;11.43;4.25;;;14.10;99.90;;;;;;6257681;22;20030;-92
2023/06/27 02:02:56;;;;;;;13.25;4.30;;;13.30;99.90;;;;;;6276063;22;20081;-91
2023/06/27 02:05:22;;;;;;;12.32;4.50;;;13.20;99.90;;;;;;6277792;22;20026;-92
2023/06/27 02:07:54;;;;;;;10.57;4.40;;;13.60;99.90;;;;;;6254780;22;20079;-91
2023/06/27 02:10:21;;;;;;;11.75;4.70;;;13.20;99.90;;;;;;6286711;22;20034;-91
2023/06/27 02:12:47;;;;;;;12.05;5.28;;;13.20;99.90;;;;;;6298135;22;20027;-91
2023/06/27 02:15:13;;;;;;;12.38;4.40;;;13.20;99.90;;;;;;6283446;22;20019;-91
2023/06/27 02:17:44;;;;;;;11.52;5.03;;;14.00;99.90;;;;;;6308961;22;20086;-92
2023/06/27 02:20:14;;;;;;;12.57;5.00;;;13.80;99.90;;;;;;6309655;22;20086;-91
2023/06/27 02:22:39;;;;;;;10.98;4.68;;;13.10;99.90;;;;;;6280548;22;20038;-91
2023/06/27 02:25:18;;;;;;;12.35;4.85;;;13.10;99.90;;;;;;6281447;22;20447;-92
2023/06/27 02:27:55;;;;;;;12.90;5.10;;;13.10;99.90;;;;;;6309413;22;20019;-91
2023/06/27 02:30:21;;;;;;;10.95;4.82;;;13.40;99.90;;;;;;6279953;22;20116;-91
2023/06/27 02:32:47;;;;;;;13.02;5.10;;;13.10;99.90;;;;;;6280728;22;20015;-91
2023/06/27 02:35:15;;;;;;;12.13;4.75;;;13.10;99.90;;;;;;6285435;22;20039;-91
2023/06/27 02:41:46;;;;;;;12.65;5.13;;;12.70;99.90;;;;;;6311116;22;19998;-91
2023/06/27 02:44:14;;;;;;;11.75;5.40;;;13.10;99.90;;;;;;6309979;22;20022;-91
2023/06/27 02:46:43;;;;;;;14.38;5.72;;;12.70;99.90;;;;;;6280959;22;20015;-91
2023/06/27 02:49:15;;;;;;;14.50;5.43;;;14.20;99.90;;;;;;6295948;22;20029;-90
2023/06/27 03:01:54;;;;;;;13.65;5.38;;;12.70;99.90;;;;;;6277341;22;20059;-91
2023/06/27 03:05:23;;;;;;;12.73;5.75;;;13.00;99.90;;;;;;6249484;22;20475;-90
2023/06/27 03:08:11;;;;;;;12.77;6.10;;;13.00;99.90;;;;;;6249703;22;20451;-91
2023/06/27 03:10:46;;;;;;;13.68;6.00;;;13.00;99.90;;;;;;6250667;22;20434;-91
2023/06/27 03:13:11;;;;;;;14.20;5.88;;;12.90;99.90;;;;;;6276247;22;20470;-92
2023/06/27 03:15:43;;;;;;;14.85;6.68;;;13.70;99.90;;;;;;6249784;22;20099;-91
2023/06/27 03:18:09;;;;;;;13.00;5.88;;;13.00;99.90;;;;;;6275448;22;20066;-91
2023/06/27 03:20:39;;;;;;;12.38;6.30;;;13.80;99.90;;;;;;6219697;23;20016;-91
2023/06/27 03:23:11;;;;;;;12.82;6.65;;;13.00;99.90;;;;;;6246375;23;20020;-90
2023/06/27 03:25:49;;;;;;;13.10;6.30;;;14.20;99.90;;;;;;6244989;22;20008;-91
2023/06/27 03:28:26;;;;;;;16.10;6.22;;;14.00;99.90;;;;;;6238726;23;20048;-91
2023/06/27 03:31:10;;;;;;;14.45;6.43;;;14.00;99.90;;;;;;6219905;23;20017;-91
2023/06/27 03:33:42;;;;;;;14.07;6.40;;;12.90;99.90;;;;;;6219932;22;20027;-91
2023/06/27 03:44:08;;;;;;;16.08;6.93;;;13.10;99.90;;;;;;6307900;22;20033;-91
2023/06/27 03:46:45;;;;;;;15.52;6.72;;;13.00;99.90;;;;;;6308012;22;20467;-90
2023/06/27 03:49:17;;;;;;;17.35;6.95;;;13.90;99.90;;;;;;6309547;22;20019;-90
2023/06/27 03:51:58;;;;;;;13.77;6.50;;;13.10;99.90;;;;;;6283145;22;20015;-91
2023/06/27 03:54:23;;;;;;;13.10;6.18;;;13.10;99.90;;;;;;6310296;22;20023;-91
2023/06/27 03:57:13;;;;;;;13.98;6.75;;;13.10;99.90;;;;;;6282351;22;20008;-91
2023/06/27 03:59:44;;;;;;;13.00;6.93;;;13.20;99.90;;;;;;6185659;23;20020;-92
2023/06/27 04:02:10;;;;;;;13.10;6.45;;;13.20;99.90;;;;;;6165683;23;20024;-92
2023/06/27 04:04:36;;;;;;;13.55;6.85;;;13.20;99.90;;;;;;6199279;23;20397;-92
2023/06/27 04:07:21;;;;;;;15.43;6.60;;;14.40;99.90;;;;;;6185816;23;20125;-91
2023/06/27 04:13:07;;;;;;;;;;;;;;;;;;;;;
2023/06/27 04:15:46;;;;;;;14.80;6.55;;;13.90;99.90;;;;;;6140020;23;20029;-91
2023/06/27 04:18:18;;;;;;;16.13;6.88;;;13.40;99.90;;;;;;6187776;23;20009;-91
2023/06/27 04:21:01;;;;;;;14.25;6.80;;;14.60;99.90;;;;;;6185684;23;20405;-91
2023/06/27 04:23:34;;;;;;;16.45;7.53;;;14.60;99.90;;;;;;6203647;22;20140;-90
2023/06/27 04:26:07;;;;;;;13.15;6.95;;;14.50;99.90;;;;;;6309774;22;20011;-91
2023/06/27 04:28:47;;;;;;;17.00;6.45;;;13.70;99.90;;;;;;6310020;22;20022;-91
2023/06/27 04:31:15;;;;;;;15.55;7.13;;;13.70;99.90;;;;;;6281453;22;20455;-92
2023/06/27 04:34:00;;;;;;;13.50;7.03;;;13.80;99.90;;;;;;6309733;22;20082;-91
2023/06/27 04:36:36;;;;;;;13.13;6.88;;;13.80;99.90;;;;;;6281112;22;20652;-91
2023/06/27 04:39:04;;;;;;;15.68;7.35;;;13.90;99.90;;;;;;6282802;22;20090;-90
2023/06/27 04:41:43;;;;;;;15.50;7.30;;;14.00;99.90;;;;;;6326816;22;20007;-91
2023/06/27 04:44:14;;;;;;;15.82;6.93;;;13.60;99.90;;;;;;6310874;22;20015;-91
2023/06/27 04:46:40;;;;;;;15.30;7.07;;;14.10;99.90;;;;;;6281353;22;20026;-91
2023/06/27 04:56:49;;;;;;;16.52;7.07;;;13.90;99.90;;;;;;6283136;22;20444;-91
2023/06/27 04:59:31;;;;;;;17.60;7.18;;;15.10;99.90;;;;;;6277920;22;20011;-92
2023/06/27 05:01:57;;;;;;;15.77;7.22;;;14.50;99.90;;;;;;6279201;22;20016;-91
2023/06/27 05:06:58;;;;;;;15.10;6.63;;;14.60;99.90;;;;;;6299826;22;20019;-90
2023/06/27 05:10:14;;;;;;;14.27;7.18;;;14.20;99.90;;;;;;6309742;22;20049;-91
2023/06/27 05:12:42;;;;;;;14.70;6.82;;;14.50;99.90;;;;;;6308406;22;20023;-91
2023/06/27 05:15:08;;;;;;;13.38;6.90;;;14.70;99.90;;;;;;6274502;22;20023;-91
2023/06/27 05:17:34;;;;;;;17.23;7.85;;;14.70;99.90;;;;;;6278458;22;20407;-90
2023/06/27 05:20:00;;;;;;;15.07;6.90;;;14.80;99.90;;;;;;6290748;22;20003;-90
2023/06/27 05:22:34;;;;;;;15.13;7.43;;;14.70;99.90;;;;;;6282887;22;20039;-90
2023/06/27 05:25:15;;;;;;;14.63;7.22;;;14.90;99.90;;;;;;6278034;22;20100;-90
2023/06/27 05:27:47;;;;;;;16.08;7.00;;;15.60;99.90;;;;;;6279484;22;20008;-90
2023/06/27 05:30:18;;;;;;;17.23;7.78;;;15.10;99.90;;;;;;6280142;22;20018;-90
2023/06/27 05:32:54;;;;;;;14.82;6.85;;;15.30;99.90;;;;;;6277782;22;20047;-90
2023/06/27 05:58:17;;;;;;;14.13;6.13;;;16.30;99.90;;;;;;6294248;22;20019;-91
2023/06/27 06:00:50;;;;;;;12.63;5.32;;;16.40;99.90;;;;;;6296594;22;20015;-90
2023/06/27 06:03:19;;;;;;;15.13;5.40;;;15.90;99.90;;;;;;6285512;22;20431;-90
2023/06/27 06:05:47;;;;;;;11.38;5.13;;;16.60;99.90;;;;;;6283898;22;20015;-91
2023/06/27 06:08:13;;;;;;;12.43;5.13;;;16.70;99.90;;;;;;6292163;22;20428;-90
2023/06/27 06:10:40;;;;;;;11.63;4.60;;;16.90;99.90;;;;;;6284039;22;20046;-91
2023/06/27 06:13:19;;;;;;;10.75;4.10;;;16.90;99.90;;;;;;6311460;22;20022;-88
2023/06/27 06:15:49;;;;;;;11.90;4.50;;;17.00;99.90;;;;;;6257689;22;20098;-87
2023/06/27 06:18:36;;;;;;;11.90;4.18;;;17.10;99.90;;;;;;6251958;22;20439;-88
2023/06/27 06:21:14;;;;;;;14.55;4.57;;;17.00;99.90;;;;;;6226450;22;20015;-90
2023/06/27 06:24:14;;;;;;;11.38;4.03;;;17.40;99.90;;;;;;6282044;22;20054;-95
2023/06/27 06:27:00;;;;;;;11.85;4.28;;;17.40;99.90;;;;;;6281215;22;20510;-93
2023/06/27 06:29:28;;;;;;;9.98;3.40;;;17.60;99.90;;;;;;6266215;22;20027;-95
2023/06/27 06:32:20;;;;;;;12.73;3.58;;;17.70;99.90;;;;;;6219007;23;20059;-95
2023/06/27 06:34:45;;;;;;;11.88;3.70;;;17.90;99.90;;;;;;6282370;22;20026;-92
2023/06/27 06:37:11;;;;;;;9.82;3.13;;;17.90;99.90;;;;;;6284754;22;20016;-93
2023/06/27 06:39:44;;;;;;;12.18;3.42;;;18.20;99.90;;;;;;6283612;22;20078;-94
2023/06/27 06:42:18;;;;;;;9.18;3.45;;;18.00;99.90;;;;;;6284039;22;20021;-91
2023/06/27 07:05:30;;;;;;;9.88;2.60;;;18.90;99.90;;;;;;6310832;22;20030;-95
2023/06/27 07:08:45;;;;;;;9.43;2.30;;;19.40;99.90;;;;;;6290105;22;20333;-95
2023/06/27 07:11:17;;;;;;;8.02;1.95;;;19.40;99.90;;;;;;6298538;22;20027;-95
2023/06/27 07:13:43;;;;;;;8.95;2.13;;;19.50;99.90;;;;;;6285077;22;20015;-95
2023/06/27 07:16:32;;;;;;;9.70;2.20;;;19.70;99.90;;;;;;6280995;22;20019;-92
2023/06/27 07:19:02;;;;;;;6.85;1.98;;;19.80;99.90;;;;;;6225556;23;20060;-95
2023/06/27 07:21:49;;;;;;;9.57;2.20;;;19.80;99.90;;;;;;6225984;23;20019;-93
2023/06/27 07:24:22;;;;;;;8.63;1.98;;;19.90;99.90;;;;;;6205032;23;20016;-94
2023/06/27 07:26:48;;;;;;;8.30;2.00;;;19.90;99.90;;;;;;6228207;23;20016;-96
2023/06/27 07:29:52;;;;;;;6.25;2.20;;;20.00;99.80;;;;;;6228688;23;20463;-94
2023/06/27 07:32:42;;;;;;;7.40;1.80;;;20.20;97.80;;;;;;6165338;22;20119;-95
2023/06/27 07:35:08;;;;;;;7.70;1.90;;;20.10;98.90;;;;;;6260140;22;20118;-95
2023/06/27 07:40:18;;;;;;;7.47;1.88;;;20.40;98.70;;;;;;6287300;22;20015;-93
2023/06/27 07:42:53;;;;;;;6.18;1.60;;;20.20;97.80;;;;;;6284843;22;20054;-93
2023/06/27 07:49:22;;;;;;;10.05;2.65;;;20.70;96.80;;;;;;6173408;23;20141;-92
2023/06/27 07:54:31;;;;;;;6.95;1.70;;;20.50;97.50;;;;;;6278539;22;20029;-91
2023/06/27 07:57:37;;;;;;;7.18;1.80;;;20.60;96.20;;;;;;6282225;22;20024;-92
2023/06/27 08:00:11;;;;;;;7.70;1.70;;;20.90;96.50;;;;;;6187869;23;20021;-91
2023/06/27 08:14:56;;;;;;;6.78;1.80;;;21.10;94.20;;;;;;6293406;22;20496;-93
2023/06/27 08:52:59;;;;;;;6.55;1.48;;;20.50;92.20;;;;;;5604206;22;15078217;-93
2023/06/27 09:15:16;;;;;;;7.20;1.60;;;21.10;90.40;;;;;;6163411;23;20025;-93
2023/06/27 09:27:38;;;;;;;7.57;1.73;;;22.00;90.90;;;;;;6275192;22;20019;-93
2023/06/27 09:38:11;;;;;;;6.75;1.73;;;22.30;88.60;;;;;;6243959;22;20024;-95
2023/06/27 09:50:54;;;;;;;4.60;1.40;;;22.30;89.70;;;;;;6263433;22;20456;-89
2023/06/27 10:00:43;;;;;;;6.95;1.60;;;21.80;89.40;;;;;;6256647;22;20041;-95
2023/06/27 10:03:19;;;;;;;5.32;1.48;;;22.50;88.30;;;;;;6256998;22;20027;-95
2023/06/27 10:06:48;;;;;;;8.40;1.95;;;22.60;88.20;;;;;;6254944;22;20026;-94
2023/06/27 10:37:24;;;;;;;6.75;1.60;;;24.00;86.00;;;;;;6269601;22;20065;-95
2023/06/27 10:40:01;;;;;;;10.65;1.70;;;23.70;87.00;;;;;;6240403;22;20050;-95
2023/06/27 10:45:22;;;;;;;6.40;1.60;;;23.30;86.60;;;;;;6307885;22;20049;-95
2023/06/27 10:48:04;;;;;;;5.93;1.60;;;23.10;86.40;;;;;;6282879;22;20015;-92
2023/06/27 10:50:35;;;;;;;6.28;1.65;;;23.10;86.70;;;;;;6281843;22;20017;-95
2023/06/27 11:05:19;;;;;;;6.82;1.73;;;23.60;84.60;;;;;;6186787;23;20025;-89
2023/06/27 11:08:38;;;;;;;6.75;1.45;;;23.80;87.30;;;;;;6186431;23;20021;-91
2023/06/27 11:13:47;;;;;;;5.07;1.50;;;23.80;87.00;;;;;;6311594;22;20019;-95
2023/06/27 11:16:13;;;;;;;7.70;1.63;;;23.90;85.10;;;;;;6314670;22;20019;-92
2023/06/27 11:18:52;;;;;;;5.78;1.73;;;23.90;84.60;;;;;;6314852;22;20015;-92
2023/06/27 12:13:11;;;;;;;5.70;1.48;;;24.10;85.40;;;;;;6250955;23;20023;-92
2023/06/27 12:19:40;;;;;;;6.90;2.00;;;23.10;86.30;;;;;;6250489;23;20107;-92
2023/06/27 12:22:47;;;;;;;6.43;1.55;;;22.60;87.30;;;;;;6222723;23;20491;-91
2023/06/27 12:26:07;;;;;;;5.88;1.60;;;22.50;89.00;;;;;;6248749;22;20099;-92
2023/06/27 12:29:14;;;;;;;7.07;1.70;;;22.40;88.60;;;;;;6232876;23;20071;-93
2023/06/27 12:39:13;;;;;;;8.73;1.90;;;22.60;89.10;;;;;;6286443;22;20024;-92
2023/06/27 12:51:08;;;;;;;6.13;1.73;;;22.00;88.50;;;;;;6179645;23;20185;-91
2023/06/27 12:57:14;;;;;;;6.63;1.60;;;22.00;88.00;;;;;;6155839;23;20097;-91
2023/06/27 12:59:51;;;;;;;6.95;1.60;;;22.20;88.20;;;;;;6155743;23;20018;-92
2023/06/27 13:02:18;;;;;;;5.47;1.50;;;22.10;88.20;;;;;;6130858;23;20056;-91
2023/06/27 13:05:14;;;;;;;5.45;1.50;;;22.00;88.60;;;;;;6098200;23;20019;-91
2023/06/27 13:07:50;;;;;;;8.55;1.70;;;22.00;89.00;;;;;;6073201;23;20410;-91
2023/06/27 13:13:18;;;;;;;6.45;1.63;;;22.00;87.20;;;;;;6295733;22;20030;-90
2023/06/27 13:15:49;;;;;;;5.20;1.50;;;22.10;87.40;;;;;;6281894;22;20015;-90
2023/06/27 13:18:40;;;;;;;7.53;1.60;;;22.30;87.40;;;;;;6281661;22;20016;-91
2023/06/27 13:21:06;;;;;;;6.07;1.80;;;22.40;86.20;;;;;;6308362;22;20043;-90
2023/06/27 13:23:47;;;;;;;4.90;1.58;;;22.40;85.60;;;;;;6288109;22;20027;-87
2023/06/27 13:26:13;;;;;;;6.15;1.58;;;22.50;85.20;;;;;;6285490;22;20391;-87
2023/06/27 13:34:55;;;;;;;5.78;1.50;;;22.80;85.10;;;;;;6129948;23;20017;-89
2023/06/27 13:37:50;;;;;;;6.55;1.75;;;23.20;84.20;;;;;;6158746;23;20022;-91
2023/06/27 13:43:22;;;;;;;4.93;1.60;;;23.20;85.20;;;;;;6279010;22;20027;-88
2023/06/27 13:45:53;;;;;;;7.45;1.75;;;23.20;85.30;;;;;;6223646;22;20339;-88
2023/06/27 14:06:18;;;;;;;6.88;1.60;;;22.90;81.90;;;;;;6277934;22;20019;-90
2023/06/27 14:09:08;;;;;;;6.78;1.50;;;22.90;82.90;;;;;;6277617;22;20019;-89
2023/06/27 16:31:08;;;;;;;5.90;1.63;;;22.20;89.60;;;;;;6258646;22;20468;-94
2023/06/27 17:03:06;;;;;;;7.32;1.80;;;20.90;91.80;;;;;;6255511;22;20105;-94
2023/06/27 17:12:03;;;;;;;7.13;1.90;;;20.50;92.60;;;;;;6311138;22;20046;-95
2023/06/27 17:15:13;;;;;;;9.02;2.17;;;20.50;92.40;;;;;;6320935;22;20019;-93
2023/06/27 17:28:57;;;;;;;8.35;2.00;;;20.30;93.00;;;;;;6328294;22;20030;-95
2023/06/27 19:22:23;;;;;;;8.98;2.00;;;18.10;96.30;;;;;;6282880;22;20339;-89
2023/06/27 19:24:49;;;;;;;6.82;1.92;;;17.90;95.80;;;;;;6282910;22;20019;-87
2023/06/27 19:27:22;;;;;;;6.05;1.90;;;17.90;96.30;;;;;;6284030;22;20072;-89
2023/06/27 19:29:54;;;;;;;5.95;1.73;;;17.80;96.80;;;;;;6282210;22;20022;-88
2023/06/27 19:32:23;;;;;;;8.95;2.38;;;17.70;97.30;;;;;;6310741;22;20019;-90
2023/06/27 19:34:55;;;;;;;10.75;2.33;;;17.60;97.00;;;;;;6283741;22;20050;-87
2023/06/27 19:37:26;;;;;;;9.45;2.03;;;17.60;97.40;;;;;;6312140;22;20015;-89
2023/06/27 19:40:32;;;;;;;9.32;2.22;;;17.50;97.50;;;;;;6322525;22;20022;-89
2023/06/27 19:42:59;;;;;;;9.27;2.38;;;17.10;97.90;;;;;;6316238;22;20026;-91
2023/06/27 19:48:22;;;;;;;7.97;2.00;;;17.30;98.20;;;;;;6186261;23;20024;-87
2023/06/27 20:01:18;;;;;;;6.38;2.03;;;17.00;99.90;;;;;;6296300;22;20030;-93
2023/06/27 20:04:15;;;;;;;8.75;2.60;;;17.00;99.90;;;;;;6282954;22;20099;-93
2023/06/27 20:20:25;;;;;;;8.95;2.30;;;16.60;99.90;;;;;;6160812;23;20377;-93
2023/06/27 20:40:06;;;;;;;9.10;2.20;;;16.40;99.90;;;;;;6285881;22;20019;31
2023/06/27 20:43:05;;;;;;;13.40;2.88;;;16.30;99.90;;;;;;6192291;23;20108;-91
2023/06/27 20:45:37;;;;;;;10.30;2.38;;;16.20;99.90;;;;;;6190172;23;20095;-91
2023/06/27 20:52:35;;;;;;;8.82;2.40;;;16.20;99.90;;;;;;6149544;22;20031;-90
2023/06/27 20:55:17;;;;;;;11.23;2.30;;;16.10;99.90;;;;;;6324279;22;20053;-91
2023/06/27 21:00:46;;;;;;;7.05;2.30;;;16.00;99.90;;;;;;6334654;22;20033;-92
2023/06/27 21:03:14;;;;;;;8.35;2.30;;;16.00;99.90;;;;;;6341156;22;20091;-91
2023/06/27 21:05:40;;;;;;;7.97;2.10;;;16.70;99.90;;;;;;6340322;22;20076;-92
2023/06/27 21:09:15;;;;;;;10.48;2.30;;;16.00;99.90;;;;;;6311953;22;20010;-92
2023/06/27 21:12:15;;;;;;;;;;;15.70;99.90;;;;;;6339948;22;20039;-92
2023/06/27 21:14:44;;;;;;;10.48;2.78;;;15.80;99.90;;;;;;6314663;22;19960;-93
2023/06/27 21:17:37;;;;;;;11.05;2.78;;;15.70;99.90;;;;;;6338500;22;20122;-89
2023/06/27 21:20:17;;;;;;;9.95;2.70;;;15.70;99.90;;;;;;6339318;22;20023;-91
2023/06/27 21:22:56;;;;;;;10.20;2.22;;;15.60;99.90;;;;;;6314798;22;20014;-91
2023/06/27 21:25:24;;;;;;;8.82;2.50;;;15.60;99.90;;;;;;6343901;22;20015;-89
2023/06/27 21:31:02;;;;;;;8.77;2.63;;;15.50;99.90;;;;;;6319631;22;20093;-90
2023/06/27 21:33:31;;;;;;;11.32;2.83;;;15.70;99.90;;;;;;6311361;22;20027;-90
2023/06/27 21:36:00;;;;;;;9.93;2.55;;;15.30;99.90;;;;;;6307509;22;20023;-90
2023/06/27 21:38:29;;;;;;;9.80;2.60;;;16.00;99.90;;;;;;6286541;22;20034;-91
2023/06/27 21:41:03;;;;;;;9.10;2.78;;;15.30;99.90;;;;;;6309470;22;20016;-91
2023/06/27 21:43:29;;;;;;;8.73;2.60;;;15.20;99.90;;;;;;6307307;22;20017;-94
2023/06/27 21:46:00;;;;;;;10.93;2.65;;;15.20;99.90;;;;;;6309776;22;20043;-92
2023/06/27 21:48:34;;;;;;;12.25;2.70;;;16.10;99.90;;;;;;6309170;22;20447;-90
2023/06/27 21:53:42;;;;;;;10.98;2.80;;;15.20;99.90;;;;;;6308480;22;20019;-91
2023/06/27 21:56:09;;;;;;;11.27;2.70;;;15.10;99.90;;;;;;6299697;22;20133;-90
2023/06/27 21:58:37;;;;;;;10.88;3.25;;;15.10;99.90;;;;;;6341585;22;20140;-90
2023/06/27 22:01:09;;;;;;;8.82;2.88;;;15.90;99.90;;;;;;6341948;22;20320;-90
2023/06/27 22:03:55;;;;;;;9.15;2.75;;;15.10;99.90;;;;;;6342203;22;20021;-90
2023/06/27 22:06:27;;;;;;;9.32;2.78;;;15.80;99.90;;;;;;6315388;22;20019;-90
2023/06/27 22:09:14;;;;;;;8.57;2.72;;;15.20;99.90;;;;;;6324409;22;20022;-90
2023/06/27 22:11:43;;;;;;;9.18;2.90;;;14.90;99.90;;;;;;6346013;22;20081;-90
2023/06/27 22:15:15;;;;;;;9.65;2.80;;;14.90;99.90;;;;;;6312389;22;20102;-90
2023/06/27 22:17:44;;;;;;;9.30;2.70;;;14.90;99.90;;;;;;6314974;22;20015;-89
2023/06/27 22:20:30;;;;;;;8.95;2.72;;;14.80;99.90;;;;;;6343643;22;20015;-90
2023/06/27 22:23:37;;;;;;;11.77;3.05;;;14.80;99.90;;;;;;6331982;22;20022;-89
2023/06/27 22:26:08;;;;;;;14.02;2.92;;;14.80;99.90;;;;;;6282158;22;20026;-91
2023/06/27 22:28:40;;;;;;;10.40;2.95;;;15.60;99.90;;;;;;6281511;22;20050;-90
2023/06/27 22:31:12;;;;;;;9.10;2.78;;;14.80;99.90;;;;;;6280874;22;20098;-91
2023/06/27 22:36:09;;;;;;;10.55;2.95;;;14.70;99.90;;;;;;6246253;22;20218;-90
2023/06/27 22:38:44;;;;;;;10.05;2.80;;;14.60;99.90;;;;;;6250931;22;20371;-91
2023/06/27 22:41:14;;;;;;;9.63;2.75;;;14.80;99.90;;;;;;6276579;22;20321;-91
2023/06/27 22:43:42;;;;;;;10.15;3.00;;;15.50;99.90;;;;;;6250868;22;20012;-91
2023/06/27 22:47:11;;;;;;;9.32;2.72;;;14.60;99.90;;;;;;6255899;22;20011;-91
2023/06/27 22:49:40;;;;;;;10.70;2.92;;;14.30;99.90;;;;;;6325061;22;20023;-92
2023/06/27 22:52:09;;;;;;;10.40;3.03;;;14.60;99.90;;;;;;6316217;22;20303;-91
2023/06/27 22:54:41;;;;;;;10.80;3.30;;;14.50;99.90;;;;;;6316052;22;20316;-91
2023/06/27 22:57:12;;;;;;;11.88;3.33;;;14.60;99.90;;;;;;6312771;22;20026;-91
2023/06/27 22:59:44;;;;;;;9.80;3.03;;;14.50;99.90;;;;;;6310335;22;20340;-92
2023/06/27 23:02:12;;;;;;;12.65;3.35;;;14.60;99.90;;;;;;6307155;22;20332;-91
2023/06/27 23:04:42;;;;;;;10.38;3.17;;;14.50;99.90;;;;;;6306877;22;20011;-91
2023/06/27 23:07:13;;;;;;;10.38;3.08;;;15.40;99.90;;;;;;6309109;22;20022;-91
2023/06/27 23:09:43;;;;;;;14.05;3.40;;;14.50;99.90;;;;;;6306414;22;20050;-91
2023/06/27 23:20:12;;;;;;;12.68;3.38;;;14.10;99.90;;;;;;6308979;22;20022;-91
2023/06/27 23:22:42;;;;;;;10.15;3.72;;;14.40;99.90;;;;;;6315913;22;20050;-91
2023/06/27 23:28:54;;;;;;;10.77;4.05;;;14.20;99.90;;;;;;6308839;22;20014;-91
2023/06/27 23:31:46;;;;;;;12.05;4.32;;;14.20;99.90;;;;;;6307737;22;20026;-91
2023/06/27 23:34:50;;;;;;;11.02;3.60;;;14.10;99.90;;;;;;6309860;22;20060;-91
2023/06/27 23:37:16;;;;;;;14.23;4.00;;;14.10;99.90;;;;;;6309169;22;20030;-91
2023/06/27 23:39:45;;;;;;;13.20;4.05;;;14.00;99.90;;;;;;6307481;22;20022;-91
2023/06/27 23:42:17;;;;;;;13.23;3.92;;;14.00;99.90;;;;;;6281959;22;20026;-91
2023/06/27 23:44:45;;;;;;;11.63;3.53;;;14.40;99.90;;;;;;6308194;22;20082;-91
2023/06/27 23:47:20;;;;;;;12.32;3.88;;;13.90;99.90;;;;;;6281826;22;20057;-91
2023/06/27 23:49:49;;;;;;;12.07;3.90;;;13.90;99.90;;;;;;6306351;22;20030;-91
2023/06/27 23:52:21;;;;;;;11.57;3.80;;;14.60;99.90;;;;;;6309444;22;20011;-91
2023/06/27 23:54:53;;;;;;;14.30;3.85;;;13.90;99.90;;;;;;6315935;22;20015;-90
2023/06/27 23:57:25;;;;;;;10.73;3.70;;;14.40;99.90;;;;;;6307885;22;20015;-91
2023/06/27 23:59:54;;;;;;;11.93;3.92;;;13.80;99.90;;;;;;6313317;22;20033;-90
